sensor_id;sensor_type;location;lat;lon;timestamp;pressure;altitude;pressure_sealevel;temperature;humidity
13594;BME280;6449;47.666;9.160;2023-02-19T00:01:08;97751.03;;;8.81;100.00
13594;BME280;6449;47.666;9.160;2023-02-19T00:06:03;97755.44;;;8.80;100.00
13594;BME280;6449;47.666;9.160;2023-02-19T00:11:01;97748.25;;;8.84;100.00
13594;BME280;6449;47.666;9.160;2023-02-19T00:15:56;97751.53;;;8.72;100.00
13594;BME280;6449;47.666;9.160;2023-02-19T00:20:50;97745.81;;;8.65;100.00
13594;BME280;6449;47.666;9.160;2023-02-19T00:25:49;97744.28;;;8.61;100.00
13594;BME280;6449;47.666;9.160;2023-02-19T00:31:31;97741.91;;;8.56;100.00
13594;BME280;6449;47.666;9.160;2023-02-19T00:37:06;97745.03;;;8.47;100.00
13594;BME280;6449;47.666;9.160;2023-02-19T00:42:04;97738.53;;;8.38;100.00
13594;BME280;6449;47.666;9.160;2023-02-19T00:46:59;97735.59;;;8.45;100.00
13594;BME280;6449;47.666;9.160;2023-02-19T00:57:00;97726.00;;;8.28;100.00
13594;BME280;6449;47.666;9.160;2023-02-19T01:06:59;97726.59;;;8.17;100.00
13594;BME280;6449;47.666;9.160;2023-02-19T01:11:53;97733.34;;;8.21;100.00
13594;BME280;6449;47.666;9.160;2023-02-19T01:16:46;97722.19;;;8.18;100.00
13594;BME280;6449;47.666;9.160;2023-02-19T01:21:40;97720.25;;;8.05;100.00
13594;BME280;6449;47.666;9.160;2023-02-19T01:26:35;97718.47;;;8.06;100.00
13594;BME280;6449;47.666;9.160;2023-02-19T01:31:29;97717.53;;;8.07;100.00
13594;BME280;6449;47.666;9.160;2023-02-19T01:36:26;97720.47;;;8.01;100.00
13594;BME280;6449;47.666;9.160;2023-02-19T01:41:31;97716.28;;;8.14;100.00
13594;BME280;6449;47.666;9.160;2023-02-19T01:51:24;97710.44;;;8.26;100.00
13594;BME280;6449;47.666;9.160;2023-02-19T01:56:20;97699.81;;;8.29;100.00
13594;BME280;6449;47.666;9.160;2023-02-19T02:01:22;97678.44;;;8.70;100.00
13594;BME280;6449;47.666;9.160;2023-02-19T02:06:24;97665.88;;;8.45;100.00
13594;BME280;6449;47.666;9.160;2023-02-19T02:11:22;97670.59;;;8.54;100.00
13594;BME280;6449;47.666;9.160;2023-02-19T02:16:23;97675.00;;;8.54;100.00
13594;BME280;6449;47.666;9.160;2023-02-19T02:21:52;97675.31;;;8.79;100.00
13594;BME280;6449;47.666;9.160;2023-02-19T02:27:11;97666.44;;;8.82;100.00
13594;BME280;6449;47.666;9.160;2023-02-19T02:32:28;97659.88;;;8.75;100.00
13594;BME280;6449;47.666;9.160;2023-02-19T02:37:41;97649.09;;;8.81;100.00
13594;BME280;6449;47.666;9.160;2023-02-19T02:42:44;97651.84;;;8.78;100.00
13594;BME280;6449;47.666;9.160;2023-02-19T02:47:49;97657.66;;;8.83;100.00
13594;BME280;6449;47.666;9.160;2023-02-19T02:52:52;97651.47;;;8.70;100.00
13594;BME280;6449;47.666;9.160;2023-02-19T02:58:06;97655.84;;;8.69;100.00
13594;BME280;6449;47.666;9.160;2023-02-19T03:03:04;97648.47;;;8.91;100.00
13594;BME280;6449;47.666;9.160;2023-02-19T03:08:07;97648.47;;;8.91;100.00
13594;BME280;6449;47.666;9.160;2023-02-19T03:13:21;97662.91;;;8.83;100.00
13594;BME280;6449;47.666;9.160;2023-02-19T03:18:42;97652.59;;;8.96;100.00
13594;BME280;6449;47.666;9.160;2023-02-19T03:23:56;97655.22;;;8.96;100.00
13594;BME280;6449;47.666;9.160;2023-02-19T03:29:08;97654.38;;;8.95;100.00
13594;BME280;6449;47.666;9.160;2023-02-19T03:34:27;97648.34;;;9.09;100.00
13594;BME280;6449;47.666;9.160;2023-02-19T03:39:31;97646.03;;;8.88;100.00
13594;BME280;6449;47.666;9.160;2023-02-19T03:44:44;97661.72;;;8.73;100.00
13594;BME280;6449;47.666;9.160;2023-02-19T03:49:45;97663.25;;;8.77;100.00
13594;BME280;6449;47.666;9.160;2023-02-19T03:54:56;97637.00;;;8.78;100.00
13594;BME280;6449;47.666;9.160;2023-02-19T04:00:09;97609.97;;;8.79;100.00
13594;BME280;6449;47.666;9.160;2023-02-19T04:05:10;97584.41;;;8.84;100.00
13594;BME280;6449;47.666;9.160;2023-02-19T04:10:33;97591.72;;;8.78;100.00
13594;BME280;6449;47.666;9.160;2023-02-19T04:15:36;97602.81;;;8.67;100.00
13594;BME280;6449;47.666;9.160;2023-02-19T04:20:45;97612.47;;;8.81;100.00
13594;BME280;6449;47.666;9.160;2023-02-19T04:25:57;97602.53;;;8.72;100.00
13594;BME280;6449;47.666;9.160;2023-02-19T04:30:57;97598.41;;;8.68;100.00
13594;BME280;6449;47.666;9.160;2023-02-19T04:35:58;97629.00;;;8.81;100.00
13594;BME280;6449;47.666;9.160;2023-02-19T04:40:59;97603.69;;;8.82;100.00
13594;BME280;6449;47.666;9.160;2023-02-19T04:46:02;97621.78;;;8.71;100.00
13594;BME280;6449;47.666;9.160;2023-02-19T04:51:11;97629.00;;;8.81;100.00
13594;BME280;6449;47.666;9.160;2023-02-19T04:56:17;97642.34;;;8.77;100.00
13594;BME280;6449;47.666;9.160;2023-02-19T05:01:23;97653.97;;;8.87;100.00
13594;BME280;6449;47.666;9.160;2023-02-19T05:06:18;97646.63;;;8.78;100.00
13594;BME280;6449;47.666;9.160;2023-02-19T05:11:13;97637.81;;;8.95;100.00
13594;BME280;6449;47.666;9.160;2023-02-19T05:16:15;97645.38;;;8.85;100.00
13594;BME280;6449;47.666;9.160;2023-02-19T05:21:21;97645.28;;;8.86;100.00
13594;BME280;6449;47.666;9.160;2023-02-19T05:26:27;97649.44;;;9.05;100.00
13594;BME280;6449;47.666;9.160;2023-02-19T05:31:28;97656.03;;;9.12;100.00
13594;BME280;6449;47.666;9.160;2023-02-19T05:36:25;97669.50;;;9.20;100.00
13594;BME280;6449;47.666;9.160;2023-02-19T05:41:26;97679.78;;;9.23;100.00
13594;BME280;6449;47.666;9.160;2023-02-19T05:46:32;97691.34;;;9.19;100.00
13594;BME280;6449;47.666;9.160;2023-02-19T05:51:36;97698.13;;;9.07;100.00
13594;BME280;6449;47.666;9.160;2023-02-19T05:56:37;97703.50;;;9.20;100.00
13594;BME280;6449;47.666;9.160;2023-02-19T06:01:37;97712.63;;;9.13;100.00
13594;BME280;6449;47.666;9.160;2023-02-19T06:06:45;97712.56;;;8.99;100.00
13594;BME280;6449;47.666;9.160;2023-02-19T06:11:55;97718.28;;;9.05;100.00
13594;BME280;6449;47.666;9.160;2023-02-19T06:16:48;97713.66;;;8.95;100.00
13594;BME280;6449;47.666;9.160;2023-02-19T06:21:43;97713.16;;;8.88;100.00
13594;BME280;6449;47.666;9.160;2023-02-19T06:26:38;97720.59;;;8.96;100.00
13594;BME280;6449;47.666;9.160;2023-02-19T06:31:32;97726.19;;;8.89;100.00
13594;BME280;6449;47.666;9.160;2023-02-19T06:36:33;97733.34;;;8.86;100.00
13594;BME280;6449;47.666;9.160;2023-02-19T06:41:34;97745.31;;;8.74;100.00
13594;BME280;6449;47.666;9.160;2023-02-19T06:46:27;97735.94;;;8.70;100.00
13594;BME280;6449;47.666;9.160;2023-02-19T06:51:44;97735.16;;;8.68;100.00
13594;BME280;6449;47.666;9.160;2023-02-19T06:56:50;97746.75;;;8.80;100.00
13594;BME280;6449;47.666;9.160;2023-02-19T07:02:34;97761.91;;;8.89;100.00
13594;BME280;6449;47.666;9.160;2023-02-19T07:07:27;97766.28;;;8.73;100.00
13594;BME280;6449;47.666;9.160;2023-02-19T07:12:22;97769.00;;;8.71;100.00
13594;BME280;6449;47.666;9.160;2023-02-19T07:17:16;97765.44;;;8.72;100.00
13594;BME280;6449;47.666;9.160;2023-02-19T07:22:11;97784.84;;;8.68;100.00
13594;BME280;6449;47.666;9.160;2023-02-19T07:27:13;97785.53;;;8.72;100.00
13594;BME280;6449;47.666;9.160;2023-02-19T07:32:24;97795.13;;;8.55;100.00
13594;BME280;6449;47.666;9.160;2023-02-19T07:37:18;97802.25;;;8.52;100.00
13594;BME280;6449;47.666;9.160;2023-02-19T07:42:15;97813.03;;;8.46;100.00
13594;BME280;6449;47.666;9.160;2023-02-19T07:47:08;97805.47;;;8.57;100.00
13594;BME280;6449;47.666;9.160;2023-02-19T07:52:06;97814.13;;;8.75;100.00
13594;BME280;6449;47.666;9.160;2023-02-19T07:56:59;97801.41;;;8.84;100.00
13594;BME280;6449;47.666;9.160;2023-02-19T08:02:14;97808.31;;;8.85;100.00
13594;BME280;6449;47.666;9.160;2023-02-19T08:07:38;97827.63;;;8.83;100.00
13594;BME280;6449;47.666;9.160;2023-02-19T08:12:47;97819.63;;;9.02;100.00
13594;BME280;6449;47.666;9.160;2023-02-19T08:18:04;97839.97;;;9.12;100.00
13594;BME280;6449;47.666;9.160;2023-02-19T08:23:05;97844.38;;;9.28;100.00
13594;BME280;6449;47.666;9.160;2023-02-19T08:28:17;97847.28;;;9.37;100.00
13594;BME280;6449;47.666;9.160;2023-02-19T08:33:20;97843.81;;;9.37;100.00
13594;BME280;6449;47.666;9.160;2023-02-19T08:38:27;97862.94;;;9.39;100.00
13594;BME280;6449;47.666;9.160;2023-02-19T08:43:24;97866.53;;;9.52;100.00
13594;BME280;6449;47.666;9.160;2023-02-19T08:48:17;97878.03;;;9.50;100.00
13594;BME280;6449;47.666;9.160;2023-02-19T08:53:36;97889.34;;;9.50;100.00
13594;BME280;6449;47.666;9.160;2023-02-19T08:58:37;97891.53;;;9.58;100.00
13594;BME280;6449;47.666;9.160;2023-02-19T09:03:34;97903.16;;;9.68;100.00
13594;BME280;6449;47.666;9.160;2023-02-19T09:08:28;97903.75;;;9.73;100.00
13594;BME280;6449;47.666;9.160;2023-02-19T09:13:24;97898.47;;;9.59;100.00
13594;BME280;6449;47.666;9.160;2023-02-19T09:18:23;97891.34;;;9.77;100.00
13594;BME280;6449;47.666;9.160;2023-02-19T09:23:17;97883.03;;;9.84;100.00
13594;BME280;6449;47.666;9.160;2023-02-19T09:28:17;97886.78;;;9.80;100.00
13594;BME280;6449;47.666;9.160;2023-02-19T09:33:18;97883.84;;;10.01;100.00
13594;BME280;6449;47.666;9.160;2023-02-19T09:38:35;97889.28;;;9.97;100.00
13594;BME280;6449;47.666;9.160;2023-02-19T09:43:37;97897.09;;;10.13;100.00
13594;BME280;6449;47.666;9.160;2023-02-19T09:48:35;97910.50;;;10.23;100.00
13594;BME280;6449;47.666;9.160;2023-02-19T09:53:51;97917.28;;;10.27;100.00
13594;BME280;6449;47.666;9.160;2023-02-19T09:59:05;97927.06;;;10.39;100.00
13594;BME280;6449;47.666;9.160;2023-02-19T10:04:04;97927.72;;;10.43;100.00
13594;BME280;6449;47.666;9.160;2023-02-19T10:09:22;97928.84;;;10.39;100.00
13594;BME280;6449;47.666;9.160;2023-02-19T10:14:36;97932.59;;;10.49;100.00
13594;BME280;6449;47.666;9.160;2023-02-19T10:19:38;97931.59;;;10.52;100.00
13594;BME280;6449;47.666;9.160;2023-02-19T10:24:36;97934.88;;;10.55;100.00
13594;BME280;6449;47.666;9.160;2023-02-19T10:29:29;97929.31;;;10.45;100.00
13594;BME280;6449;47.666;9.160;2023-02-19T10:34:23;97928.69;;;10.56;100.00
13594;BME280;6449;47.666;9.160;2023-02-19T10:39:43;97915.34;;;10.89;100.00
13594;BME280;6449;47.666;9.160;2023-02-19T10:44:50;97916.72;;;10.95;100.00
13594;BME280;6449;47.666;9.160;2023-02-19T10:49:58;97939.03;;;11.02;100.00
13594;BME280;6449;47.666;9.160;2023-02-19T10:55:47;97945.41;;;10.98;100.00
13594;BME280;6449;47.666;9.160;2023-02-19T11:00:41;97957.78;;;10.82;100.00
13594;BME280;6449;47.666;9.160;2023-02-19T11:06:01;97944.72;;;10.66;100.00
13594;BME280;6449;47.666;9.160;2023-02-19T11:10:56;97947.88;;;10.57;100.00
13594;BME280;6449;47.666;9.160;2023-02-19T11:15:54;97946.63;;;10.48;100.00
13594;BME280;6449;47.666;9.160;2023-02-19T11:20:52;97939.63;;;10.48;100.00
13594;BME280;6449;47.666;9.160;2023-02-19T11:25:49;97923.34;;;10.28;100.00
13594;BME280;6449;47.666;9.160;2023-02-19T11:30:47;97919.28;;;10.22;100.00
13594;BME280;6449;47.666;9.160;2023-02-19T11:35:41;97923.19;;;10.15;100.00
13594;BME280;6449;47.666;9.160;2023-02-19T11:40:43;97917.13;;;10.30;100.00
13594;BME280;6449;47.666;9.160;2023-02-19T11:45:49;97919.53;;;10.33;100.00
13594;BME280;6449;47.666;9.160;2023-02-19T11:50:59;97910.84;;;10.33;100.00
13594;BME280;6449;47.666;9.160;2023-02-19T11:56:13;97898.56;;;10.33;100.00
13594;BME280;6449;47.666;9.160;2023-02-19T12:01:22;97893.09;;;10.22;100.00
13594;BME280;6449;47.666;9.160;2023-02-19T12:06:28;97877.22;;;10.25;100.00
13594;BME280;6449;47.666;9.160;2023-02-19T12:11:53;97893.91;;;10.38;100.00
13594;BME280;6449;47.666;9.160;2023-02-19T12:17:07;97894.03;;;10.51;100.00
13594;BME280;6449;47.666;9.160;2023-02-19T12:22:25;97895.28;;;10.74;100.00
13594;BME280;6449;47.666;9.160;2023-02-19T12:27:38;97899.75;;;10.86;100.00
13594;BME280;6449;47.666;9.160;2023-02-19T12:33:01;97906.06;;;10.84;100.00
13594;BME280;6449;47.666;9.160;2023-02-19T12:38:11;97915.81;;;10.82;100.00
13594;BME280;6449;47.666;9.160;2023-02-19T12:43:14;97918.50;;;10.80;100.00
13594;BME280;6449;47.666;9.160;2023-02-19T12:48:19;97923.56;;;10.69;100.00
13594;BME280;6449;47.666;9.160;2023-02-19T12:53:31;97924.88;;;10.62;100.00
13594;BME280;6449;47.666;9.160;2023-02-19T12:58:31;97931.25;;;10.72;100.00
13594;BME280;6449;47.666;9.160;2023-02-19T13:03:36;97931.34;;;10.85;100.00
13594;BME280;6449;47.666;9.160;2023-02-19T13:08:39;97943.03;;;10.79;100.00
13594;BME280;6449;47.666;9.160;2023-02-19T13:14:03;97932.94;;;10.87;100.00
13594;BME280;6449;47.666;9.160;2023-02-19T13:19:03;97950.66;;;10.84;100.00
13594;BME280;6449;47.666;9.160;2023-02-19T13:23:56;97930.97;;;11.34;100.00
13594;BME280;6449;47.666;9.160;2023-02-19T13:29:12;97917.41;;;11.68;100.00
13594;BME280;6449;47.666;9.160;2023-02-19T13:34:23;97913.84;;;11.55;100.00
13594;BME280;6449;47.666;9.160;2023-02-19T13:39:22;97915.31;;;11.32;100.00
13594;BME280;6449;47.666;9.160;2023-02-19T13:44:27;97911.84;;;11.46;100.00
13594;BME280;6449;47.666;9.160;2023-02-19T13:49:40;97899.69;;;11.58;100.00
13594;BME280;6449;47.666;9.160;2023-02-19T13:54:38;97908.47;;;11.71;100.00
13594;BME280;6449;47.666;9.160;2023-02-19T13:59:37;97902.59;;;11.67;100.00
13594;BME280;6449;47.666;9.160;2023-02-19T14:04:49;97907.19;;;11.64;100.00
13594;BME280;6449;47.666;9.160;2023-02-19T14:09:45;97902.47;;;11.69;100.00
13594;BME280;6449;47.666;9.160;2023-02-19T14:14:44;97901.16;;;11.35;100.00
13594;BME280;6449;47.666;9.160;2023-02-19T14:20:00;97918.88;;;11.17;100.00
13594;BME280;6449;47.666;9.160;2023-02-19T14:25:00;97904.00;;;10.89;100.00
13594;BME280;6449;47.666;9.160;2023-02-19T14:29:53;97904.66;;;10.78;100.00
13594;BME280;6449;47.666;9.160;2023-02-19T14:34:47;97909.88;;;10.64;100.00
13594;BME280;6449;47.666;9.160;2023-02-19T14:39:43;97901.56;;;10.71;100.00
13594;BME280;6449;47.666;9.160;2023-02-19T14:44:47;97901.28;;;10.90;100.00
13594;BME280;6449;47.666;9.160;2023-02-19T14:49:44;97901.81;;;10.81;100.00
13594;BME280;6449;47.666;9.160;2023-02-19T14:54:47;97902.94;;;10.63;100.00
13594;BME280;6449;47.666;9.160;2023-02-19T14:59:55;97890.56;;;10.65;100.00
13594;BME280;6449;47.666;9.160;2023-02-19T15:04:50;97902.28;;;10.59;100.00
13594;BME280;6449;47.666;9.160;2023-02-19T15:20:09;97918.88;;;10.74;100.00
13594;BME280;6449;47.666;9.160;2023-02-19T15:25:04;97935.09;;;10.66;100.00
13594;BME280;6449;47.666;9.160;2023-02-19T15:40:14;97940.06;;;10.85;100.00
13594;BME280;6449;47.666;9.160;2023-02-19T15:50:17;97949.31;;;10.62;100.00
13594;BME280;6449;47.666;9.160;2023-02-19T16:00:38;97949.25;;;10.78;100.00
13594;BME280;6449;47.666;9.160;2023-02-19T16:05:33;97950.31;;;10.60;100.00
13594;BME280;6449;47.666;9.160;2023-02-19T16:10:31;97963.03;;;10.52;100.00
13594;BME280;6449;47.666;9.160;2023-02-19T16:20:47;97966.25;;;10.57;100.00
13594;BME280;6449;47.666;9.160;2023-02-19T16:25:45;97985.03;;;10.49;100.00
13594;BME280;6449;47.666;9.160;2023-02-19T16:30:41;97987.00;;;10.45;100.00
13594;BME280;6449;47.666;9.160;2023-02-19T16:46:16;97999.44;;;10.10;100.00
13594;BME280;6449;47.666;9.160;2023-02-19T16:51:24;98016.44;;;10.03;100.00
13594;BME280;6449;47.666;9.160;2023-02-19T16:56:20;98020.25;;;10.13;100.00
13594;BME280;6449;47.666;9.160;2023-02-19T17:01:16;98025.41;;;10.15;100.00
13594;BME280;6449;47.666;9.160;2023-02-19T17:06:14;98039.84;;;10.06;100.00
13594;BME280;6449;47.666;9.160;2023-02-19T17:11:15;98045.19;;;10.05;100.00
13594;BME280;6449;47.666;9.160;2023-02-19T17:16:18;98050.84;;;9.97;100.00
13594;BME280;6449;47.666;9.160;2023-02-19T17:21:16;98046.53;;;9.96;100.00
13594;BME280;6449;47.666;9.160;2023-02-19T17:26:14;98036.31;;;10.07;100.00
13594;BME280;6449;47.666;9.160;2023-02-19T17:31:08;98033.41;;;10.12;100.00
13594;BME280;6449;47.666;9.160;2023-02-19T17:36:05;98040.53;;;10.10;100.00
13594;BME280;6449;47.666;9.160;2023-02-19T17:40:59;98042.56;;;10.05;100.00
13594;BME280;6449;47.666;9.160;2023-02-19T17:45:55;98060.41;;;9.98;100.00
13594;BME280;6449;47.666;9.160;2023-02-19T17:50:51;98055.41;;;9.93;100.00
13594;BME280;6449;47.666;9.160;2023-02-19T17:56:00;98055.56;;;9.90;100.00
13594;BME280;6449;47.666;9.160;2023-02-19T18:01:03;98054.13;;;9.85;100.00
13594;BME280;6449;47.666;9.160;2023-02-19T18:06:06;98071.06;;;9.62;100.00
13594;BME280;6449;47.666;9.160;2023-02-19T18:11:12;98073.88;;;9.59;100.00
13594;BME280;6449;47.666;9.160;2023-02-19T18:16:09;98090.34;;;9.61;100.00
13594;BME280;6449;47.666;9.160;2023-02-19T18:21:05;98090.09;;;9.65;100.00
13594;BME280;6449;47.666;9.160;2023-02-19T18:26:02;98100.72;;;9.62;100.00
13594;BME280;6449;47.666;9.160;2023-02-19T18:31:00;98117.44;;;9.60;100.00
13594;BME280;6449;47.666;9.160;2023-02-19T18:46:20;98133.16;;;9.42;100.00
13594;BME280;6449;47.666;9.160;2023-02-19T18:51:14;98138.66;;;9.38;100.00
13594;BME280;6449;47.666;9.160;2023-02-19T18:56:08;98140.78;;;9.47;100.00
13594;BME280;6449;47.666;9.160;2023-02-19T19:11:16;98154.50;;;9.35;100.00
13594;BME280;6449;47.666;9.160;2023-02-19T19:16:10;98152.72;;;9.35;100.00
13594;BME280;6449;47.666;9.160;2023-02-19T19:21:07;98144.72;;;9.38;100.00
13594;BME280;6449;47.666;9.160;2023-02-19T19:26:03;98147.13;;;9.43;100.00
13594;BME280;6449;47.666;9.160;2023-02-19T19:30:59;98157.50;;;9.44;100.00
13594;BME280;6449;47.666;9.160;2023-02-19T19:35:53;98147.25;;;9.40;100.00
13594;BME280;6449;47.666;9.160;2023-02-19T19:40:47;98157.72;;;9.40;100.00
13594;BME280;6449;47.666;9.160;2023-02-19T19:45:41;98155.34;;;9.35;100.00
13594;BME280;6449;47.666;9.160;2023-02-19T19:50:39;98159.44;;;9.24;100.00
13594;BME280;6449;47.666;9.160;2023-02-19T19:55:32;98158.72;;;9.20;100.00
13594;BME280;6449;47.666;9.160;2023-02-19T20:00:28;98141.72;;;9.29;100.00
13594;BME280;6449;47.666;9.160;2023-02-19T20:05:22;98155.88;;;9.25;100.00
13594;BME280;6449;47.666;9.160;2023-02-19T20:10:17;98157.97;;;9.18;100.00
13594;BME280;6449;47.666;9.160;2023-02-19T20:15:12;98163.38;;;9.32;100.00
13594;BME280;6449;47.666;9.160;2023-02-19T20:20:07;98171.03;;;9.18;100.00
13594;BME280;6449;47.666;9.160;2023-02-19T20:25:01;98172.97;;;9.14;100.00
13594;BME280;6449;47.666;9.160;2023-02-19T20:45:17;98177.22;;;9.17;100.00
13594;BME280;6449;47.666;9.160;2023-02-19T20:50:11;98178.50;;;9.26;100.00
13594;BME280;6449;47.666;9.160;2023-02-19T20:55:06;98186.53;;;9.23;100.00
13594;BME280;6449;47.666;9.160;2023-02-19T21:00:01;98196.06;;;9.24;100.00
13594;BME280;6449;47.666;9.160;2023-02-19T21:05:00;98194.09;;;9.10;100.00
13594;BME280;6449;47.666;9.160;2023-02-19T21:09:54;98190.13;;;9.20;100.00
13594;BME280;6449;47.666;9.160;2023-02-19T21:14:50;98189.34;;;9.18;100.00
13594;BME280;6449;47.666;9.160;2023-02-19T21:19:51;98186.44;;;9.24;100.00
13594;BME280;6449;47.666;9.160;2023-02-19T21:24:48;98185.06;;;9.17;100.00
13594;BME280;6449;47.666;9.160;2023-02-19T21:29:45;98174.19;;;9.07;100.00
13594;BME280;6449;47.666;9.160;2023-02-19T21:34:38;98184.97;;;9.01;100.00
13594;BME280;6449;47.666;9.160;2023-02-19T21:39:31;98180.41;;;9.05;100.00
13594;BME280;6449;47.666;9.160;2023-02-19T21:44:27;98188.63;;;8.97;100.00
13594;BME280;6449;47.666;9.160;2023-02-19T21:49:21;98189.34;;;9.01;100.00
13594;BME280;6449;47.666;9.160;2023-02-19T21:54:17;98203.72;;;8.92;100.00
13594;BME280;6449;47.666;9.160;2023-02-19T21:59:12;98201.22;;;8.89;100.00
13594;BME280;6449;47.666;9.160;2023-02-19T22:04:09;98207.19;;;9.10;100.00
13594;BME280;6449;47.666;9.160;2023-02-19T22:09:03;98208.41;;;9.03;100.00
13594;BME280;6449;47.666;9.160;2023-02-19T22:13:57;98203.19;;;9.03;100.00
13594;BME280;6449;47.666;9.160;2023-02-19T22:18:53;98210.50;;;8.96;100.00
13594;BME280;6449;47.666;9.160;2023-02-19T22:23:50;98208.41;;;9.03;100.00
13594;BME280;6449;47.666;9.160;2023-02-19T22:28:44;98204.84;;;8.86;100.00
13594;BME280;6449;47.666;9.160;2023-02-19T22:33:39;98202.16;;;8.88;100.00
13594;BME280;6449;47.666;9.160;2023-02-19T22:38:32;98215.31;;;8.86;100.00
13594;BME280;6449;47.666;9.160;2023-02-19T22:43:27;98226.69;;;8.85;100.00
13594;BME280;6449;47.666;9.160;2023-02-19T22:48:20;98219.69;;;8.86;100.00
13594;BME280;6449;47.666;9.160;2023-02-19T23:13:54;98212.16;;;8.80;100.00
13594;BME280;6449;47.666;9.160;2023-02-19T23:18:48;98220.47;;;8.88;100.00
13594;BME280;6449;47.666;9.160;2023-02-19T23:23:45;98229.16;;;8.88;100.00
13594;BME280;6449;47.666;9.160;2023-02-19T23:28:38;98224.22;;;8.82;100.00
13594;BME280;6449;47.666;9.160;2023-02-19T23:33:36;98231.34;;;8.79;100.00
13594;BME280;6449;47.666;9.160;2023-02-19T23:38:29;98243.09;;;8.70;100.00
13594;BME280;6449;47.666;9.160;2023-02-19T23:43:23;98237.25;;;8.65;100.00
13594;BME280;6449;47.666;9.160;2023-02-19T23:48:17;98226.91;;;8.62;100.00
13594;BME280;6449;47.666;9.160;2023-02-19T23:53:12;98223.25;;;8.66;100.00
13594;BME280;6449;47.666;9.160;2023-02-19T23:58:05;98212.41;;;8.92;100.00
